Time;durP1;ratioP1;P1;durP2;ratioP2;P2;SDS_P1;SDS_P2;PMS_P1;PMS_P2;Temp;Humidity;BMP_temperature;BMP_pressure;BME280_temperature;BME280_humidity;BME280_pressure;Samples;Min_cycle;Max_cycle;Signal;HPM_P1;HPM_P2
2021/10/25 00:02:12;;;;;;;0.90;0.90;;;;;;;4.05;73.08;101838.91;111907;1192;95371;-74
2021/10/25 00:04:40;;;;;;;0.90;0.90;;;;;;;4.07;72.73;101838.95;111717;1192;138689;-73
2021/10/25 00:07:08;;;;;;;1.00;1.00;;;;;;;4.00;72.66;101836.52;111797;1192;108601;-73
2021/10/25 00:09:36;;;;;;;1.00;1.00;;;;;;;3.98;72.91;101835.21;111823;1192;110096;-75
2021/10/25 00:12:05;;;;;;;1.10;1.10;;;;;;;4.01;72.87;101834.42;111689;1192;139985;-75
2021/10/25 00:14:33;;;;;;;0.90;0.90;;;;;;;4.05;72.43;101830.46;111704;1192;95255;-75
2021/10/25 00:17:01;;;;;;;0.90;0.90;;;;;;;4.03;72.55;101833.42;111682;1192;137267;-75
2021/10/25 00:19:30;;;;;;;1.00;1.00;;;;;;;4.02;72.58;101833.73;111771;1192;109560;-74
2021/10/25 00:21:58;;;;;;;1.00;1.00;;;;;;;4.12;72.37;101834.33;111626;1193;94999;-75
2021/10/25 00:24:26;;;;;;;0.90;0.90;;;;;;;4.13;71.88;101834.02;111700;1192;137323;-74
2021/10/25 00:26:54;;;;;;;1.10;1.10;;;;;;;4.05;71.81;101828.54;111640;1193;108687;-75
2021/10/25 00:29:22;;;;;;;1.10;1.10;;;;;;;3.96;71.97;101825.34;111654;1192;138637;-74
2021/10/25 00:31:50;;;;;;;1.00;1.00;;;;;;;3.89;72.17;101827.81;111851;1192;94885;-75
2021/10/25 00:34:18;;;;;;;1.00;1.00;;;;;;;3.88;72.13;101823.73;111867;1192;94840;-75
2021/10/25 00:36:46;;;;;;;1.00;1.00;;;;;;;3.88;72.18;101824.95;111694;1196;137172;-73
2021/10/25 00:39:13;;;;;;;1.00;1.00;;;;;;;3.81;72.17;101816.20;111769;1192;108742;-76
2021/10/25 00:41:41;;;;;;;1.00;1.00;;;;;;;3.76;72.25;101816.59;111707;1192;138659;-75
2021/10/25 00:44:09;;;;;;;1.00;1.00;;;;;;;3.71;72.39;101812.10;111803;1192;95441;-75
2021/10/25 00:46:38;;;;;;;1.00;1.00;;;;;;;3.71;72.41;101810.33;111616;1192;138801;-75
2021/10/25 00:49:06;;;;;;;1.10;1.10;;;;;;;3.68;72.57;101813.23;111727;1192;108982;-75
2021/10/25 00:51:34;;;;;;;1.10;1.10;;;;;;;3.61;72.52;101813.61;111563;1194;95008;-74
2021/10/25 00:54:02;;;;;;;1.10;1.10;;;;;;;3.61;72.72;101813.08;111681;1192;138704;-75
2021/10/25 00:56:33;;;;;;;0.90;0.90;;;;;;;3.64;72.40;101811.04;111765;1193;108471;-74
2021/10/25 00:59:00;;;;;;;1.00;1.00;;;;;;;3.60;72.33;101809.38;111769;1192;139647;-75
2021/10/25 01:01:28;;;;;;;1.10;1.10;;;;;;;3.51;72.62;101804.40;111545;1194;96138;-76
2021/10/25 01:03:56;;;;;;;1.10;1.10;;;;;;;3.46;72.56;101800.78;111491;1194;95355;-74
2021/10/25 01:06:24;;;;;;;1.10;1.10;;;;;;;3.41;72.81;101796.78;111617;1192;139117;-76
2021/10/25 01:08:54;;;;;;;1.10;1.10;;;;;;;3.40;72.99;101796.91;111626;1193;109422;-76
2021/10/25 01:11:23;;;;;;;1.00;1.00;;;;;;;3.44;72.87;101795.28;111698;1192;139242;-75
2021/10/25 01:13:52;;;;;;;1.00;1.00;;;;;;;3.46;72.56;101791.98;111493;1193;95913;-76
2021/10/25 01:16:20;;;;;;;1.10;1.10;;;;;;;3.47;72.55;101792.20;111675;1193;107491;-76
2021/10/25 01:18:49;;;;;;;1.00;1.00;;;;;;;3.49;72.43;101789.60;111414;1193;138184;-75
2021/10/25 01:21:17;;;;;;;1.00;1.00;;;;;;;3.50;72.26;101790.16;111710;1192;94886;-75
2021/10/25 01:23:45;;;;;;;1.30;1.30;;;;;;;3.47;72.21;101788.48;111664;1192;138635;-75
2021/10/25 01:26:16;;;;;;;1.10;1.10;;;;;;;3.43;72.52;101787.16;111723;1192;108364;-76
2021/10/25 01:28:45;;;;;;;1.10;1.10;;;;;;;3.40;72.59;101782.53;111698;1193;139497;-76
2021/10/25 01:31:13;;;;;;;1.00;1.00;;;;;;;3.35;72.78;101784.32;111797;1193;94919;-76
2021/10/25 01:33:44;;;;;;;1.10;1.10;;;;;;;3.33;72.97;101781.65;111536;1192;95977;-76
2021/10/25 01:36:13;;;;;;;1.10;1.10;;;;;;;3.34;72.74;101775.88;111544;1193;137456;-75
2021/10/25 01:38:41;;;;;;;1.10;1.10;;;;;;;3.35;73.01;101771.86;111678;1193;109497;-74
2021/10/25 01:41:10;;;;;;;1.10;1.10;;;;;;;3.38;72.80;101772.80;111578;1194;138723;-76
2021/10/25 01:43:38;;;;;;;1.00;1.00;;;;;;;3.37;72.65;101766.29;111571;1193;95360;-75
2021/10/25 01:46:08;;;;;;;1.00;1.00;;;;;;;3.36;72.56;101761.00;111620;1192;108468;-76
2021/10/25 01:48:36;;;;;;;1.10;1.10;;;;;;;3.32;72.66;101758.45;111724;1192;137232;-76
2021/10/25 01:51:05;;;;;;;1.20;1.20;;;;;;;3.30;72.73;101755.94;111608;1193;94930;-76
2021/10/25 01:53:35;;;;;;;1.00;1.00;;;;;;;3.30;72.57;101752.95;111799;1191;138375;-75
2021/10/25 01:56:07;;;;;;;1.10;1.10;;;;;;;3.31;72.64;101754.89;111747;1192;107200;-75
2021/10/25 01:58:36;;;;;;;1.10;1.10;;;;;;;3.30;72.79;101754.36;111401;1192;137390;-75
2021/10/25 02:01:05;;;;;;;1.20;1.20;;;;;;;3.28;72.63;101753.61;111851;1192;96127;-75
2021/10/25 02:03:34;;;;;;;1.20;1.20;;;;;;;3.26;72.66;101745.81;111698;1193;95234;-76
2021/10/25 02:06:14;;;;;;;1.10;1.10;;;;;;;3.24;72.79;101743.15;111427;1193;137856;-77
2021/10/25 02:08:42;;;;;;;1.30;1.30;;;;;;;3.19;72.88;101738.11;111677;1193;109528;-76
2021/10/25 02:11:13;;;;;;;1.10;1.10;;;;;;;3.15;72.98;101737.99;111714;1194;140355;-77
2021/10/25 02:13:45;;;;;;;1.20;1.20;;;;;;;3.12;73.12;101735.64;111601;1193;94981;-75
2021/10/25 02:16:14;;;;;;;1.10;1.10;;;;;;;3.13;73.17;101732.86;111768;1193;109286;-76
2021/10/25 02:18:42;;;;;;;1.10;1.10;;;;;;;3.14;73.06;101730.96;111671;1192;137484;-75
2021/10/25 02:21:12;;;;;;;1.10;1.10;;;;;;;3.11;73.12;101730.52;111581;1194;95938;-76
2021/10/25 02:23:41;;;;;;;1.20;1.20;;;;;;;3.07;73.49;101727.11;111438;1193;140087;-75
2021/10/25 02:26:10;;;;;;;1.10;1.10;;;;;;;3.08;73.27;101722.56;111645;1194;108475;-75
2021/10/25 02:28:38;;;;;;;1.20;1.20;;;;;;;3.11;73.28;101721.58;111532;1193;138889;-76
2021/10/25 02:31:07;;;;;;;1.10;1.10;;;;;;;3.10;73.25;101721.22;111705;1193;94931;-76
2021/10/25 02:33:39;;;;;;;1.10;1.10;;;;;;;3.09;73.08;101723.12;111761;1192;95529;-76
2021/10/25 02:36:08;;;;;;;1.10;1.10;;;;;;;3.07;73.08;101723.76;111503;1192;137826;-75
2021/10/25 02:38:40;;;;;;;1.00;1.00;;;;;;;3.07;73.20;101719.73;111698;1193;107335;-74
2021/10/25 02:41:09;;;;;;;1.10;1.10;;;;;;;3.04;73.24;101720.69;111457;1193;138424;-74
2021/10/25 02:43:38;;;;;;;1.10;1.10;;;;;;;2.97;73.18;101719.65;111670;1192;95574;-74
2021/10/25 02:46:07;;;;;;;1.20;1.20;;;;;;;2.93;73.20;101717.43;111867;1192;108007;-76
2021/10/25 02:48:39;;;;;;;1.10;1.10;;;;;;;2.92;73.18;101712.30;111591;1193;138964;-76
2021/10/25 02:51:08;;;;;;;1.10;1.10;;;;;;;2.93;73.12;101710.06;111751;1193;94868;-75
2021/10/25 02:53:36;;;;;;;1.10;1.10;;;;;;;2.97;73.15;101711.40;111614;1192;138076;-76
2021/10/25 02:56:05;;;;;;;1.20;1.20;;;;;;;2.96;72.91;101704.88;111774;1192;109245;-75
2021/10/25 02:58:33;;;;;;;1.20;1.20;;;;;;;2.96;72.91;101705.41;111639;1192;138248;-75
2021/10/25 03:01:01;;;;;;;1.20;1.20;;;;;;;2.98;72.71;101704.59;111744;1192;95683;-76
2021/10/25 03:03:29;;;;;;;1.20;1.20;;;;;;;2.99;72.64;101705.33;111548;1193;94994;-75
2021/10/25 03:05:57;;;;;;;1.20;1.20;;;;;;;2.98;72.63;101702.30;111365;1196;138220;-75
2021/10/25 03:08:28;;;;;;;1.10;1.10;;;;;;;2.96;72.66;101700.15;112020;1192;109468;-77
2021/10/25 03:10:57;;;;;;;1.20;1.20;;;;;;;2.98;72.59;101698.27;111592;1192;139102;-76
2021/10/25 03:13:25;;;;;;;1.20;1.20;;;;;;;2.97;72.39;101701.42;111677;1193;95297;-75
2021/10/25 03:15:53;;;;;;;1.20;1.20;;;;;;;2.94;72.57;101701.84;111557;1193;106109;-75
2021/10/25 03:18:22;;;;;;;1.10;1.10;;;;;;;2.91;72.66;101701.05;111367;1193;137830;-76
2021/10/25 03:20:51;;;;;;;1.10;1.10;;;;;;;2.92;72.99;101706.17;111920;1192;94921;-75
2021/10/25 03:23:19;;;;;;;1.10;1.10;;;;;;;2.96;72.52;101700.82;111616;1193;137709;-75
2021/10/25 03:25:47;;;;;;;1.20;1.20;;;;;;;2.97;72.61;101698.77;111696;1193;107526;-75
2021/10/25 03:28:15;;;;;;;1.10;1.10;;;;;;;2.98;72.28;101703.00;111505;1193;108476;-75
2021/10/25 03:30:44;;;;;;;1.20;1.20;;;;;;;2.97;72.36;101700.86;111724;1192;137595;-75
2021/10/25 03:33:12;;;;;;;1.10;1.10;;;;;;;2.97;72.55;101700.01;111796;1193;94873;-75
2021/10/25 03:35:48;;;;;;;1.20;1.20;;;;;;;2.97;72.41;101700.16;111672;1193;137621;-76
2021/10/25 03:38:17;;;;;;;1.20;1.20;;;;;;;2.95;72.52;101694.48;111571;1193;109119;-74
2021/10/25 03:40:49;;;;;;;1.10;1.10;;;;;;;3.02;72.50;101697.33;111818;1192;139563;-75
2021/10/25 03:43:19;;;;;;;1.20;1.20;;;;;;;3.07;72.28;101693.05;112111;1192;95414;-76
2021/10/25 03:46:32;;;;;;;1.20;1.20;;;;;;;3.04;72.15;101687.02;111838;1194;108748;-75
2021/10/25 03:48:49;;;;;;;1.20;1.20;;;;;;;2.98;72.49;101684.21;111727;1194;137444;-77
2021/10/25 03:51:18;;;;;;;1.10;1.10;;;;;;;2.98;72.36;101685.98;111619;1193;95443;-77
2021/10/25 03:53:55;;;;;;;1.10;1.10;;;;;;;2.95;72.61;101683.44;111492;1193;137599;-75
2021/10/25 03:59:31;;;;;;;1.10;1.10;;;;;;;2.90;72.89;101683.31;111274;1194;138437;-76
2021/10/25 04:27:10;;;;;;;1.00;1.00;;;;;;;2.75;72.86;101646.61;111831;1193;96020;-76
2021/10/25 04:29:40;;;;;;;1.10;1.10;;;;;;;2.73;73.04;101644.65;111543;1193;139195;-76
2021/10/25 04:32:08;;;;;;;1.10;1.10;;;;;;;2.73;72.87;101636.05;111637;1193;108956;-75
2021/10/25 04:34:36;;;;;;;1.00;1.00;;;;;;;2.73;72.84;101636.05;111514;1193;137895;-78
2021/10/25 04:37:27;;;;;;;1.10;1.10;;;;;;;2.75;72.91;101637.15;111817;1193;94888;-77
2021/10/25 04:40:05;;;;;;;1.20;1.20;;;;;;;2.72;72.88;101633.56;111935;1192;108546;-77
2021/10/25 04:42:34;;;;;;;1.20;1.20;;;;;;;2.66;72.83;101629.92;111500;1193;137991;-77
2021/10/25 04:45:02;;;;;;;1.20;1.20;;;;;;;2.66;72.82;101623.43;111620;1194;94903;-77
2021/10/25 04:47:31;;;;;;;1.20;1.20;;;;;;;2.67;72.71;101620.30;111604;1193;138299;-77
2021/10/25 04:50:05;;;;;;;1.10;1.10;;;;;;;2.65;72.63;101622.00;111980;1193;108541;-75
2021/10/25 04:52:53;;;;;;;1.20;1.20;;;;;;;2.67;72.71;101621.36;111671;1193;138236;-76
2021/10/25 04:55:21;;;;;;;1.00;1.00;;;;;;;2.71;72.49;101623.90;111524;1193;95510;-75
2021/10/25 04:57:49;;;;;;;1.30;1.30;;;;;;;2.74;72.54;101620.30;111630;1193;95377;-77
2021/10/25 05:00:16;;;;;;;1.20;1.20;;;;;;;2.69;72.52;101616.31;111720;1194;138526;-76
2021/10/25 05:02:44;;;;;;;1.10;1.10;;;;;;;2.69;72.45;101611.05;111877;1193;109121;-75
2021/10/25 05:05:13;;;;;;;1.20;1.20;;;;;;;2.66;72.40;101613.44;111814;1193;139903;-76
2021/10/25 05:07:40;;;;;;;1.10;1.10;;;;;;;2.60;72.59;101613.10;111546;1195;95652;-75
2021/10/25 05:10:09;;;;;;;1.20;1.20;;;;;;;2.54;72.95;101608.56;111844;1193;107500;-77
2021/10/25 05:12:37;;;;;;;1.20;1.20;;;;;;;2.54;73.08;101605.77;111409;1193;138602;-77
2021/10/25 05:15:06;;;;;;;1.20;1.20;;;;;;;2.55;73.07;101605.77;111775;1192;95423;-76
2021/10/25 05:17:34;;;;;;;1.10;1.10;;;;;;;2.56;72.98;101603.33;111576;1192;139529;-76
2021/10/25 05:20:05;;;;;;;1.20;1.20;;;;;;;2.50;72.97;101601.27;111744;1193;107598;-76
2021/10/25 05:22:36;;;;;;;1.20;1.20;;;;;;;2.53;72.93;101602.21;112384;1193;138126;-75
2021/10/25 05:25:08;;;;;;;1.10;1.10;;;;;;;2.56;72.95;101600.36;111953;1193;94886;-75
2021/10/25 05:27:36;;;;;;;1.30;1.30;;;;;;;2.59;72.61;101604.48;111572;1193;94906;-76
2021/10/25 05:30:05;;;;;;;1.20;1.20;;;;;;;2.55;72.80;101602.98;111663;1193;137620;-75
2021/10/25 05:32:33;;;;;;;1.10;1.10;;;;;;;2.57;72.91;101604.27;111684;1193;108452;-76
2021/10/25 05:35:02;;;;;;;1.00;1.00;;;;;;;2.61;72.89;101600.51;111895;1192;139615;-74
2021/10/25 05:37:30;;;;;;;1.10;1.10;;;;;;;2.63;72.54;101601.42;111556;1193;95523;-77
2021/10/25 05:39:58;;;;;;;1.10;1.10;;;;;;;2.59;72.65;101598.34;111735;1193;107500;-76
2021/10/25 05:42:33;;;;;;;1.20;1.20;;;;;;;2.57;72.74;101596.37;111532;1193;137912;-77
2021/10/25 05:45:04;;;;;;;1.20;1.20;;;;;;;2.60;72.91;101596.61;111597;1193;95391;-76
2021/10/25 05:47:32;;;;;;;1.00;1.00;;;;;;;2.65;72.78;101594.13;111546;1193;139123;-76
2021/10/25 05:50:02;;;;;;;1.20;1.20;;;;;;;2.66;72.83;101592.58;111826;1192;108112;-76
2021/10/25 05:52:31;;;;;;;1.30;1.30;;;;;;;2.68;72.60;101594.91;111509;1193;139023;-75
2021/10/25 05:54:59;;;;;;;1.20;1.20;;;;;;;2.67;72.80;101592.40;111904;1192;94880;-76
2021/10/25 05:57:28;;;;;;;1.10;1.10;;;;;;;2.66;73.05;101593.98;112818;1192;94887;-76
2021/10/25 05:59:56;;;;;;;1.10;1.10;;;;;;;2.68;73.12;101589.63;112022;1192;137721;-75
2021/10/25 06:02:28;;;;;;;1.10;1.10;;;;;;;2.72;73.03;101590.44;111573;1193;108600;-76
2021/10/25 06:05:07;;;;;;;1.30;1.30;;;;;;;2.75;73.17;101588.59;111649;1193;139113;-76
2021/10/25 06:07:44;;;;;;;1.20;1.20;;;;;;;2.83;73.10;101588.59;111533;1200;95317;-75
2021/10/25 06:10:14;;;;;;;1.00;1.00;;;;;;;2.88;72.81;101590.45;111793;1192;108258;-76
2021/10/25 06:12:50;;;;;;;1.20;1.20;;;;;;;2.89;73.00;101584.70;111673;1192;138308;-76
2021/10/25 06:15:36;;;;;;;1.00;1.00;;;;;;;2.96;72.88;101586.45;111796;1193;94877;-75
2021/10/25 06:18:08;;;;;;;1.10;1.10;;;;;;;3.03;72.76;101585.21;111282;1196;137702;-76
2021/10/25 06:20:39;;;;;;;1.10;1.10;;;;;;;3.07;72.49;101583.03;111803;1193;107512;-76
2021/10/25 06:23:14;;;;;;;1.10;1.10;;;;;;;3.06;72.71;101584.23;111606;1192;137566;-75
2021/10/25 06:25:45;;;;;;;1.10;1.10;;;;;;;3.10;72.64;101583.29;111812;1193;95544;-75
2021/10/25 06:28:15;;;;;;;1.10;1.10;;;;;;;3.20;72.55;101583.86;112036;1193;94892;-77
2021/10/25 06:30:59;;;;;;;1.10;1.10;;;;;;;3.34;72.35;101580.15;111389;1192;138462;-75
2021/10/25 06:33:47;;;;;;;1.10;1.10;;;;;;;3.41;72.03;101579.96;111658;1192;108958;-75
2021/10/25 06:36:35;;;;;;;0.90;0.90;;;;;;;3.43;71.99;101579.13;111731;1193;137788;-75
2021/10/25 06:39:21;;;;;;;0.90;0.90;;;;;;;3.46;71.98;101577.78;111515;1197;94936;-76
2021/10/25 06:41:52;;;;;;;1.00;1.00;;;;;;;3.51;71.69;101574.55;111479;1199;137815;-76
2021/10/25 06:44:25;;;;;;;1.00;1.00;;;;;;;3.48;71.72;101577.81;111495;1194;109382;-76
2021/10/25 06:47:12;;;;;;;1.00;1.00;;;;;;;3.54;71.82;101578.64;111645;1192;138723;-77
2021/10/25 06:49:40;;;;;;;1.00;1.00;;;;;;;3.64;71.75;101576.58;111565;1193;95501;-75
2021/10/25 06:52:08;;;;;;;1.00;1.00;;;;;;;3.70;71.56;101570.02;111529;1193;107521;-77
2021/10/25 06:54:35;;;;;;;1.20;1.20;;;;;;;3.76;71.63;101564.88;111433;1193;137534;-75
2021/10/25 06:57:04;;;;;;;0.90;0.90;;;;;;;3.84;71.18;101567.33;111851;1193;94926;-75
2021/10/25 06:59:32;;;;;;;0.80;0.80;;;;;;;3.94;71.09;101563.83;111434;1193;138179;-74
2021/10/25 07:02:01;;;;;;;0.90;0.90;;;;;;;4.03;70.86;101559.95;111794;1193;108013;-77
2021/10/25 07:04:30;;;;;;;0.90;0.90;;;;;;;4.03;70.94;101555.03;111659;1193;108456;-75
2021/10/25 07:06:58;;;;;;;1.00;1.00;;;;;;;4.12;70.95;101553.11;111687;1193;137404;-74
2021/10/25 07:09:26;;;;;;;0.90;0.90;;;;;;;4.22;70.61;101549.94;111545;1193;95874;-74
2021/10/25 07:11:54;;;;;;;0.90;0.90;;;;;;;4.42;70.23;101553.12;111646;1193;138935;-75
2021/10/25 07:14:29;;;;;;;0.90;0.90;;;;;;;4.74;69.22;101548.20;111630;1193;109907;-75
2021/10/25 07:59:52;;;;;;;0.70;0.70;;;;;;;5.69;67.11;101545.67;111636;1192;139234;-75
2021/10/25 08:10:38;;;;;;;0.70;0.70;;;;;;;5.93;66.52;101532.39;111494;1193;109177;-75
2021/10/25 08:13:14;;;;;;;0.80;0.80;;;;;;;6.08;66.90;101536.11;111545;1193;137958;-75
2021/10/25 08:15:45;;;;;;;0.70;0.70;;;;;;;6.16;66.19;101534.24;111551;1193;94971;-75
2021/10/25 08:21:09;;;;;;;0.70;0.70;;;;;;;6.41;65.77;101533.95;111397;1193;109886;-74
2021/10/25 08:23:38;;;;;;;0.70;0.70;;;;;;;6.51;65.78;101528.59;111464;1194;139257;-74
2021/10/25 08:26:24;;;;;;;0.70;0.70;;;;;;;6.67;65.29;101524.30;111555;1193;95490;-74
2021/10/25 08:28:54;;;;;;;0.70;0.70;;;;;;;6.84;65.85;101521.77;111647;1193;137247;-74
2021/10/25 08:31:23;;;;;;;0.70;0.70;;;;;;;6.98;64.82;101513.94;111694;1192;109403;-75
2021/10/25 08:42:11;;;;;;;0.70;0.70;;;;;;;7.41;63.32;101517.17;111324;1200;138469;-76
2021/10/25 08:44:40;;;;;;;0.60;0.60;;;;;;;7.56;62.39;101517.60;111559;1193;95416;-77
2021/10/25 08:47:09;;;;;;;0.60;0.60;;;;;;;7.83;61.69;101511.67;111516;1193;137463;-76
2021/10/25 08:49:37;;;;;;;0.50;0.50;;;;;;;7.94;61.93;101512.95;111826;1193;108643;-75
2021/10/25 08:52:05;;;;;;;0.50;0.50;;;;;;;8.06;61.30;101511.02;111774;1192;109476;-73
2021/10/25 08:54:36;;;;;;;0.50;0.50;;;;;;;8.12;61.00;101512.09;111754;1192;137291;-74
2021/10/25 08:57:03;;;;;;;0.50;0.50;;;;;;;8.19;61.76;101510.17;111626;1193;95395;-74
2021/10/25 08:59:35;;;;;;;0.60;0.60;;;;;;;8.44;60.46;101503.84;111529;1193;139105;-75
2021/10/25 09:02:08;;;;;;;0.60;0.60;;;;;;;9.17;58.84;101498.97;111569;1193;109515;-76
2021/10/25 09:05:07;;;;;;;0.50;0.50;;;;;;;10.20;56.97;101500.44;111679;1193;137469;-74
2021/10/25 09:07:51;;;;;;;0.50;0.50;;;;;;;10.27;55.58;101496.65;111533;1193;96257;-75
2021/10/25 09:10:42;;;;;;;0.50;0.50;;;;;;;11.55;53.90;101487.02;111855;1192;108491;-74
2021/10/25 09:13:16;;;;;;;0.40;0.30;;;;;;;13.78;48.69;101479.42;111407;1193;139353;-75
2021/10/25 09:15:58;;;;;;;0.40;0.30;;;;;;;15.55;47.16;101470.29;111583;1193;95005;-75
2021/10/25 09:18:53;;;;;;;0.40;0.30;;;;;;;17.27;41.08;101467.08;111345;1193;137916;-76
2021/10/25 09:21:32;;;;;;;0.40;0.20;;;;;;;18.42;36.90;101464.45;111765;1193;108586;-76
2021/10/25 09:24:03;;;;;;;0.40;0.10;;;;;;;19.09;34.48;101458.15;111667;1192;137500;-76
2021/10/25 09:26:32;;;;;;;0.40;0.20;;;;;;;19.87;34.25;101457.60;111542;1193;94891;-76
2021/10/25 09:29:03;;;;;;;0.40;0.10;;;;;;;20.84;32.97;101447.38;111467;1193;138150;-74
2021/10/25 09:31:34;;;;;;;0.40;0.10;;;;;;;21.44;31.89;101450.33;111520;1193;108563;-76
2021/10/25 09:34:06;;;;;;;0.40;0.10;;;;;;;19.41;33.26;101446.73;111955;1192;108616;-76
2021/10/25 09:37:18;;;;;;;0.40;0.10;;;;;;;17.23;37.11;101449.30;111484;1196;137603;-76
2021/10/25 09:40:05;;;;;;;0.40;0.10;;;;;;;16.13;39.47;101449.34;111653;1195;95574;-76
2021/10/25 09:51:16;;;;;;;0.40;0.20;;;;;;;12.79;46.37;101440.63;111591;1193;94993;-76
2021/10/25 09:54:05;;;;;;;0.40;0.20;;;;;;;12.21;47.75;101439.67;111508;1193;138565;-75
2021/10/25 09:56:43;;;;;;;0.40;0.30;;;;;;;11.85;49.26;101437.01;111588;1193;110109;-75
2021/10/25 09:59:52;;;;;;;0.40;0.30;;;;;;;11.58;50.68;101436.85;111271;1193;138998;-76
2021/10/25 10:02:42;;;;;;;0.40;0.30;;;;;;;11.36;51.35;101432.34;111622;1192;94951;-75
2021/10/25 10:05:18;;;;;;;0.40;0.30;;;;;;;11.16;51.52;101432.06;111449;1193;137565;-78
2021/10/25 10:07:49;;;;;;;0.40;0.30;;;;;;;10.96;51.97;101428.38;111637;1193;108464;-77
2021/10/25 10:10:32;;;;;;;0.40;0.30;;;;;;;10.96;52.55;101423.58;111408;1193;95586;-76
2021/10/25 10:13:04;;;;;;;0.40;0.40;;;;;;;11.09;52.63;101418.98;111719;1192;137964;-76
2021/10/25 10:15:38;;;;;;;0.40;0.30;;;;;;;12.02;50.48;101414.30;111591;1193;108518;-77
2021/10/25 10:18:28;;;;;;;0.40;0.30;;;;;;;12.88;47.60;101410.88;111485;1193;137937;-75
2021/10/25 10:21:23;;;;;;;0.40;0.20;;;;;;;12.24;49.10;101407.94;111822;1192;95654;-76
2021/10/25 10:23:58;;;;;;;0.40;0.30;;;;;;;11.91;49.36;101408.44;111665;1193;137907;-76
2021/10/25 10:26:32;;;;;;;0.40;0.30;;;;;;;11.69;50.29;101405.04;111839;1193;108672;-75
2021/10/25 10:29:35;;;;;;;0.40;0.30;;;;;;;11.64;51.29;101403.85;111394;1193;137715;-76
2021/10/25 10:32:14;;;;;;;0.40;0.30;;;;;;;11.58;51.43;101400.39;111529;1193;95006;-76
2021/10/25 10:35:09;;;;;;;0.40;0.30;;;;;;;11.52;51.81;101397.08;111334;1193;137528;-75
2021/10/25 10:38:00;;;;;;;0.40;0.30;;;;;;;11.46;52.11;101393.98;111534;1193;109018;-75
2021/10/25 10:40:42;;;;;;;0.40;0.30;;;;;;;11.39;51.97;101387.50;111697;1192;108439;-76
2021/10/25 10:43:30;;;;;;;0.40;0.30;;;;;;;11.30;52.13;101384.95;111645;1192;138629;-74
2021/10/25 10:46:09;;;;;;;0.40;0.40;;;;;;;11.29;52.56;101381.77;111792;1192;94923;-76
2021/10/25 10:48:39;;;;;;;0.40;0.30;;;;;;;11.30;52.48;101377.66;111499;1192;137313;-75
2021/10/25 10:51:11;;;;;;;0.40;0.40;;;;;;;11.29;52.39;101371.45;111748;1192;108501;-75
2021/10/25 10:54:09;;;;;;;0.40;0.30;;;;;;;11.32;52.86;101365.19;111670;1193;138711;-75
2021/10/25 10:56:52;;;;;;;0.40;0.40;;;;;;;11.34;52.29;101355.02;111840;1193;95337;-75
2021/10/25 10:59:34;;;;;;;0.40;0.40;;;;;;;11.39;52.59;101343.39;111699;1192;138072;-76
2021/10/25 11:02:02;;;;;;;0.40;0.40;;;;;;;11.43;52.20;101340.13;111783;1192;109825;-76
2021/10/25 11:04:33;;;;;;;0.40;0.30;;;;;;;11.48;52.46;101338.64;111808;1192;94853;-76
2021/10/25 11:07:02;;;;;;;0.40;0.30;;;;;;;11.48;51.97;101336.86;111697;1192;137862;-75
2021/10/25 11:09:31;;;;;;;0.40;0.30;;;;;;;11.49;51.86;101333.46;111876;1193;108132;-77
2021/10/25 11:12:12;;;;;;;0.40;0.40;;;;;;;11.47;51.49;101331.55;111766;1192;138315;-75
2021/10/25 11:14:40;;;;;;;0.40;0.40;;;;;;;11.53;51.77;101330.73;111822;1193;94935;-76
2021/10/25 11:19:48;;;;;;;0.40;0.40;;;;;;;11.52;51.35;101329.16;111738;1192;108564;-77
2021/10/25 11:22:34;;;;;;;0.40;0.30;;;;;;;11.58;51.69;101329.23;111752;1192;108394;-75
2021/10/25 11:25:06;;;;;;;0.40;0.30;;;;;;;11.60;50.66;101331.71;111698;1192;137708;-76
2021/10/25 11:27:36;;;;;;;0.40;0.30;;;;;;;11.60;51.42;101325.48;111783;1192;96146;-75
2021/10/25 11:30:08;;;;;;;0.40;0.30;;;;;;;11.67;51.22;101324.83;111680;1192;138732;-75
2021/10/25 11:32:37;;;;;;;0.40;0.30;;;;;;;11.67;50.71;101317.55;111585;1193;109423;-75
2021/10/25 11:35:07;;;;;;;0.40;0.30;;;;;;;11.70;51.24;101315.71;111556;1193;138496;-76
2021/10/25 11:37:35;;;;;;;0.40;0.30;;;;;;;11.71;50.28;101310.55;111841;1192;95332;-77
2021/10/25 11:40:08;;;;;;;0.40;0.30;;;;;;;11.69;50.55;101306.13;111714;1192;107492;-75
2021/10/25 11:42:42;;;;;;;0.40;0.30;;;;;;;11.72;50.94;101300.02;111462;1192;137685;-75
2021/10/25 11:45:15;;;;;;;0.40;0.30;;;;;;;11.81;50.65;101296.30;111996;1192;96001;-76
2021/10/25 11:47:46;;;;;;;0.40;0.30;;;;;;;11.85;49.90;101299.46;111743;1192;139123;-76
2021/10/25 11:50:19;;;;;;;0.40;0.30;;;;;;;11.86;50.36;101293.38;111463;1194;107488;-76
2021/10/25 11:52:50;;;;;;;0.40;0.30;;;;;;;11.93;50.57;101286.51;111769;1193;108671;-76
2021/10/25 11:55:25;;;;;;;0.40;0.30;;;;;;;12.00;50.40;101285.16;111635;1192;138141;-76
2021/10/25 11:58:05;;;;;;;0.40;0.30;;;;;;;12.05;49.98;101280.98;111936;1192;94878;-77
2021/10/25 12:00:40;;;;;;;0.40;0.30;;;;;;;12.08;50.11;101279.14;111661;1193;138278;-76
2021/10/25 12:03:30;;;;;;;0.40;0.30;;;;;;;12.06;49.95;101270.83;111721;1192;110005;-76
2021/10/25 12:06:00;;;;;;;0.40;0.30;;;;;;;12.06;50.63;101268.33;111440;1193;137590;-76
2021/10/25 12:08:28;;;;;;;0.40;0.30;;;;;;;12.13;50.74;101269.96;111740;1192;95036;-76
2021/10/25 12:10:57;;;;;;;0.40;0.30;;;;;;;12.16;49.99;101266.17;111783;1193;109004;-77
2021/10/25 12:13:25;;;;;;;0.40;0.30;;;;;;;12.17;50.18;101262.95;111467;1192;138018;-76
2021/10/25 12:15:58;;;;;;;0.40;0.30;;;;;;;12.20;50.47;101256.66;111556;1193;96293;-76
2021/10/25 12:18:27;;;;;;;0.40;0.30;;;;;;;12.24;50.76;101260.50;111557;1192;137476;-77
2021/10/25 12:20:56;;;;;;;0.40;0.30;;;;;;;12.25;50.16;101262.64;111614;1193;109138;-76
2021/10/25 12:23:28;;;;;;;0.40;0.30;;;;;;;12.25;50.58;101257.83;111695;1192;138885;-75
2021/10/25 12:25:59;;;;;;;0.40;0.30;;;;;;;12.26;50.10;101259.04;111635;1192;94961;-76
2021/10/25 12:28:27;;;;;;;0.40;0.30;;;;;;;12.27;50.43;101257.78;111604;1193;96154;-76
2021/10/25 12:31:10;;;;;;;0.40;0.30;;;;;;;12.30;50.25;101252.91;111528;1192;137404;-77
2021/10/25 12:33:42;;;;;;;0.40;0.30;;;;;;;12.33;50.22;101256.05;111633;1192;108996;-75
2021/10/25 12:36:21;;;;;;;0.40;0.30;;;;;;;12.35;50.46;101249.98;111604;1193;137874;-75
2021/10/25 12:38:54;;;;;;;0.40;0.30;;;;;;;12.38;50.28;101254.54;111675;1193;94991;-76
2021/10/25 12:41:23;;;;;;;0.40;0.30;;;;;;;12.39;50.07;101250.95;112147;1192;137685;-76
2021/10/25 12:43:56;;;;;;;0.40;0.30;;;;;;;12.39;49.86;101246.86;111680;1193;108447;-76
2021/10/25 12:46:32;;;;;;;0.40;0.30;;;;;;;12.36;49.48;101242.81;111677;1193;94892;-76
2021/10/25 12:49:02;;;;;;;0.40;0.30;;;;;;;12.34;49.49;101238.23;111594;1192;138249;-76
2021/10/25 12:51:40;;;;;;;0.40;0.30;;;;;;;12.32;49.98;101234.89;112189;1192;109106;-76
2021/10/25 12:54:11;;;;;;;0.40;0.30;;;;;;;12.35;50.35;101234.65;111511;1192;138004;-77
2021/10/25 12:56:42;;;;;;;0.40;0.30;;;;;;;12.38;49.87;101231.19;111810;1192;95428;-76
2021/10/25 12:59:13;;;;;;;0.40;0.30;;;;;;;12.40;49.83;101224.23;112158;1193;138806;-77
2021/10/25 13:01:55;;;;;;;0.40;0.30;;;;;;;12.44;50.01;101226.10;111706;1192;107524;-77
2021/10/25 13:04:25;;;;;;;0.40;0.30;;;;;;;12.46;49.33;101226.95;111776;1192;108543;-75
2021/10/25 13:06:53;;;;;;;0.40;0.30;;;;;;;12.46;49.42;101224.81;111510;1193;137578;-76
2021/10/25 13:09:21;;;;;;;0.40;0.30;;;;;;;12.45;49.17;101225.36;111775;1192;95390;-77
2021/10/25 13:11:48;;;;;;;0.40;0.30;;;;;;;12.45;49.39;101225.19;111594;1192;137933;-78
2021/10/25 13:14:16;;;;;;;0.40;0.30;;;;;;;12.44;49.04;101227.17;111760;1192;109575;-76
2021/10/25 13:16:48;;;;;;;0.40;0.30;;;;;;;12.40;49.39;101225.48;111613;1192;96259;-76
2021/10/25 13:19:18;;;;;;;0.40;0.30;;;;;;;12.39;49.69;101217.48;111746;1192;137937;-76
2021/10/25 13:21:47;;;;;;;0.40;0.20;;;;;;;12.40;49.72;101218.87;111711;1192;108558;-76
2021/10/25 13:24:15;;;;;;;0.40;0.30;;;;;;;12.41;49.36;101214.41;111678;1192;137591;-77